Time;durP1;ratioP1;P1;durP2;ratioP2;P2;SDS_P1;SDS_P2;PMS_P1;PMS_P2;Temp;Humidity;BMP_temperature;BMP_pressure;BME280_temperature;BME280_humidity;BME280_pressure;Samples;Min_cycle;Max_cycle;Signal;HPM_P1;HPM_P2
2022/03/28 00:00:52;;;;;;;9.93;7.77;;;;;;;9.98;52.87;96290.88;4347734;32;20299;-61
2022/03/28 00:03:18;;;;;;;11.07;7.77;;;;;;;9.85;53.36;96291.41;4367944;32;20198;-61
2022/03/28 00:05:43;;;;;;;10.10;8.13;;;;;;;9.99;53.11;96293.25;4376435;32;20185;-61
2022/03/28 00:08:09;;;;;;;9.60;8.40;;;;;;;9.88;53.45;96286.38;4354533;32;20291;-61
2022/03/28 00:10:34;;;;;;;8.53;7.63;;;;;;;9.97;53.14;96284.81;4381453;32;20264;-61
2022/03/28 00:13:00;;;;;;;12.67;8.30;;;;;;;10.13;52.74;96282.94;4372484;32;20207;-61
2022/03/28 00:15:27;;;;;;;9.53;8.43;;;;;;;10.01;52.96;96285.03;4374784;32;20254;-61
2022/03/28 00:17:54;;;;;;;9.47;8.43;;;;;;;10.05;53.04;96286.09;4376036;32;20218;-61
2022/03/28 00:20:21;;;;;;;9.77;8.30;;;;;;;9.88;53.52;96278.44;4368719;32;20349;-61
2022/03/28 00:22:46;;;;;;;10.43;8.10;;;;;;;9.89;53.56;96279.22;4359377;32;20284;-61
2022/03/28 00:25:12;;;;;;;10.70;8.33;;;;;;;9.96;53.39;96277.91;4359387;32;20299;-61
2022/03/28 00:27:39;;;;;;;8.60;7.30;;;;;;;10.14;52.74;96265.97;4352152;32;20211;-61
2022/03/28 00:30:07;;;;;;;13.10;8.07;;;;;;;10.04;52.93;96268.63;4366182;32;20455;-61
2022/03/28 00:32:34;;;;;;;11.63;8.77;;;;;;;9.81;53.48;96269.13;4376108;32;20362;-60
2022/03/28 00:35:02;;;;;;;9.47;7.63;;;;;;;9.78;53.68;96264.38;4369230;32;20342;-61
2022/03/28 00:37:29;;;;;;;13.63;8.27;;;;;;;9.88;53.43;96259.88;4382293;32;20276;-61
2022/03/28 00:39:55;;;;;;;10.80;7.37;;;;;;;9.74;53.81;96264.13;4378570;32;20364;-61
2022/03/28 00:42:20;;;;;;;10.20;8.33;;;;;;;9.91;53.41;96266.50;4374094;32;20276;-61
2022/03/28 00:44:46;;;;;;;11.13;8.60;;;;;;;9.60;54.21;96261.19;4357564;32;20288;-61
2022/03/28 00:47:12;;;;;;;8.53;7.63;;;;;;;9.61;54.48;96262.78;4367335;32;20199;-61
2022/03/28 00:49:37;;;;;;;8.07;7.17;;;;;;;9.63;54.35;96257.22;4371501;32;20276;-61
2022/03/28 00:52:06;;;;;;;9.60;8.27;;;;;;;9.60;54.43;96257.72;4344093;32;20267;-61
2022/03/28 00:54:32;;;;;;;10.60;8.57;;;;;;;9.75;54.42;96255.12;4390091;32;20211;-61
2022/03/28 00:56:57;;;;;;;9.30;8.30;;;;;;;9.82;54.17;96257.47;4389682;32;20264;-61
2022/03/28 00:59:23;;;;;;;8.47;7.27;;;;;;;9.73;54.31;96254.59;4380012;32;20191;-61
2022/03/28 01:01:48;;;;;;;8.83;7.60;;;;;;;9.55;54.90;96247.94;4362513;32;20263;-61
2022/03/28 01:04:14;;;;;;;9.47;8.23;;;;;;;9.61;55.19;96251.37;4387102;32;20236;-69
2022/03/28 01:06:39;;;;;;;11.17;8.97;;;;;;;9.69;54.58;96244.78;4374187;32;20242;-61
2022/03/28 01:09:06;;;;;;;9.50;8.47;;;;;;;9.51;54.88;96240.78;4391555;32;20230;-61
2022/03/28 01:11:34;;;;;;;9.63;7.93;;;;;;;9.42;55.71;96248.44;4391886;32;20207;-61
2022/03/28 01:14:01;;;;;;;12.20;8.30;;;;;;;9.36;55.70;96246.84;4358776;32;20310;-61
2022/03/28 01:19:20;;;;;;;9.73;8.50;;;;;;;9.56;55.16;96238.91;4352526;32;20288;-61
2022/03/28 01:21:45;;;;;;;15.33;8.03;;;;;;;9.45;55.18;96239.19;4388806;32;20363;-61
2022/03/28 01:24:12;;;;;;;9.67;7.77;;;;;;;9.57;55.02;96234.41;4386782;32;20272;-61
2022/03/28 01:26:40;;;;;;;8.50;7.67;;;;;;;9.63;54.82;96239.47;4397543;32;20176;-61
2022/03/28 01:29:06;;;;;;;10.57;8.57;;;;;;;9.30;55.96;96238.09;4374450;32;20321;-61
2022/03/28 01:31:42;;;;;;;9.20;7.70;;;;;;;9.37;56.17;96242.34;4386403;32;20280;-61
2022/03/28 01:34:19;;;;;;;9.77;7.40;;;;;;;9.54;55.62;96235.75;4346752;32;20180;-61
2022/03/28 01:36:47;;;;;;;11.63;8.47;;;;;;;9.29;56.27;96233.06;4391447;32;20332;-62
2022/03/28 01:39:17;;;;;;;10.90;9.10;;;;;;;9.15;56.72;96234.59;4379730;32;20335;-61
2022/03/28 01:41:43;;;;;;;8.80;7.50;;;;;;;9.22;56.76;96238.59;4382546;32;20363;-61
2022/03/28 01:44:10;;;;;;;9.73;7.90;;;;;;;9.35;56.34;96224.09;4383063;32;20277;-61
2022/03/28 01:46:46;;;;;;;8.73;7.80;;;;;;;9.26;56.80;96226.44;4363651;32;20308;-61
2022/03/28 01:49:32;;;;;;;9.80;7.93;;;;;;;9.32;56.68;96223.81;4392512;32;20267;-61
2022/03/28 01:51:58;;;;;;;9.03;7.73;;;;;;;9.19;57.03;96219.81;4388039;32;20331;-61
2022/03/28 01:54:24;;;;;;;8.83;7.93;;;;;;;9.18;57.09;96218.22;4380212;32;20272;-61
2022/03/28 01:56:50;;;;;;;10.40;7.23;;;;;;;9.14;56.98;96211.88;4381241;32;20192;-62
2022/03/28 01:59:15;;;;;;;10.63;8.53;;;;;;;9.13;57.04;96207.63;4370728;32;20377;-61
2022/03/28 02:01:43;;;;;;;11.17;8.50;;;;;;;9.33;56.29;96207.66;4358401;32;20177;-61
2022/03/28 02:04:10;;;;;;;11.40;8.20;;;;;;;9.24;56.44;96206.59;4378691;32;20180;-61
2022/03/28 02:06:35;;;;;;;10.70;8.17;;;;;;;9.38;56.01;96199.72;4366394;32;20272;-61
2022/03/28 02:09:02;;;;;;;11.07;8.00;;;;;;;9.13;56.67;96205.78;4378408;32;20290;-61
2022/03/28 02:11:30;;;;;;;11.63;7.63;;;;;;;9.09;56.87;96206.56;4377643;32;20210;-61
2022/03/28 02:13:57;;;;;;;9.83;7.07;;;;;;;9.03;57.20;96200.44;4395614;32;20291;-61
2022/03/28 02:16:23;;;;;;;12.33;7.73;;;;;;;8.94;57.47;96202.81;4381152;32;20289;-61
2022/03/28 02:18:49;;;;;;;10.23;8.57;;;;;;;8.99;57.41;96204.66;4374163;32;20203;-61
2022/03/28 02:21:14;;;;;;;9.90;8.10;;;;;;;8.81;57.99;96208.59;4376178;32;20268;-66
2022/03/28 02:23:41;;;;;;;8.73;7.70;;;;;;;8.78;58.07;96195.88;4373962;32;20218;-61
2022/03/28 02:26:07;;;;;;;10.03;7.93;;;;;;;8.83;58.38;96200.41;4379649;32;20194;-61
2022/03/28 02:28:34;;;;;;;9.73;8.07;;;;;;;8.91;57.64;96198.06;4381823;32;20356;-61
2022/03/28 02:31:03;;;;;;;12.60;8.57;;;;;;;8.90;57.47;96200.97;4381331;32;20288;-61
2022/03/28 02:33:33;;;;;;;11.53;8.53;;;;;;;9.06;57.25;96205.22;4365662;32;20291;-61
2022/03/28 02:35:58;;;;;;;8.87;7.97;;;;;;;9.19;56.81;96198.63;4387342;32;20265;-61
2022/03/28 02:38:24;;;;;;;9.87;8.03;;;;;;;9.04;57.27;96195.94;4377315;32;20334;-61
2022/03/28 02:40:51;;;;;;;8.37;7.43;;;;;;;9.05;57.46;96197.53;4347992;32;20181;-61
2022/03/28 02:43:16;;;;;;;10.20;8.43;;;;;;;9.09;57.13;96203.91;4385482;32;20192;-61
2022/03/28 02:45:43;;;;;;;9.10;7.93;;;;;;;9.01;57.37;96201.75;4379371;32;20355;-61
2022/03/28 02:48:08;;;;;;;9.30;8.43;;;;;;;9.02;57.43;96203.34;4373903;32;20314;-60
2022/03/28 02:50:35;;;;;;;8.23;7.53;;;;;;;8.87;57.46;96202.28;4391877;32;20372;-60
2022/03/28 02:53:01;;;;;;;9.10;8.27;;;;;;;8.94;57.50;96202.00;4374269;32;20188;-61
2022/03/28 02:55:27;;;;;;;10.10;8.10;;;;;;;9.04;57.14;96190.66;4348783;32;20268;-60
2022/03/28 02:57:54;;;;;;;9.00;8.07;;;;;;;8.86;57.62;96191.94;4396932;32;20172;-61
2022/03/28 03:00:20;;;;;;;10.20;8.27;;;;;;;8.91;57.76;96192.75;4387153;32;20272;-61
2022/03/28 03:02:46;;;;;;;9.43;7.40;;;;;;;8.78;58.13;96187.94;4366290;32;20317;-61
2022/03/28 03:05:15;;;;;;;11.70;8.47;;;;;;;8.92;57.71;96188.25;4391316;32;20280;-61
2022/03/28 03:07:42;;;;;;;10.30;8.70;;;;;;;8.91;57.79;96190.13;4387883;32;20176;-60
2022/03/28 03:10:10;;;;;;;12.97;8.73;;;;;;;8.89;57.89;96183.50;4366248;32;20268;-61
2022/03/28 03:12:35;;;;;;;9.40;8.27;;;;;;;8.84;58.52;96189.56;4383882;32;20339;-61
2022/03/28 03:15:03;;;;;;;8.93;8.03;;;;;;;8.95;58.12;96188.50;4389011;32;20290;-61
2022/03/28 03:17:34;;;;;;;8.50;7.70;;;;;;;8.86;58.36;96190.09;4384395;32;20173;-61
2022/03/28 03:20:02;;;;;;;12.00;8.43;;;;;;;8.96;58.19;96179.53;4399701;32;20268;-62
2022/03/28 03:22:28;;;;;;;9.63;7.90;;;;;;;9.01;57.92;96193.81;4392743;32;20268;-61
2022/03/28 03:24:53;;;;;;;10.13;8.10;;;;;;;8.89;58.10;96189.59;4365529;32;20288;-60
2022/03/28 03:27:20;;;;;;;11.20;8.17;;;;;;;8.89;58.23;96186.94;4388085;32;20317;-61
2022/03/28 03:29:47;;;;;;;10.27;8.40;;;;;;;8.68;58.79;96181.84;4388098;32;20180;-61
2022/03/28 03:32:16;;;;;;;10.03;8.63;;;;;;;8.84;58.52;96191.41;4389509;32;20323;-61
2022/03/28 03:34:59;;;;;;;10.30;8.10;;;;;;;8.99;58.06;96193.28;4378581;32;20295;-61
2022/03/28 03:37:27;;;;;;;10.33;8.57;;;;;;;8.78;58.52;96195.88;4382656;32;20346;-60
2022/03/28 03:39:53;;;;;;;9.17;8.27;;;;;;;8.87;58.23;96196.19;4389753;32;20195;-61
2022/03/28 03:42:18;;;;;;;9.97;8.10;;;;;;;8.90;58.33;96195.66;4390363;32;20284;-61
2022/03/28 03:45:08;;;;;;;10.00;7.77;;;;;;;8.80;58.68;96191.13;4391173;32;20287;-64
2022/03/28 03:47:34;;;;;;;9.30;7.93;;;;;;;8.94;58.52;96186.91;4385178;32;20264;-61
2022/03/28 03:50:00;;;;;;;9.77;8.87;;;;;;;8.89;58.70;96184.28;4374239;32;20325;-61
2022/03/28 03:52:27;;;;;;;11.30;8.97;;;;;;;8.87;59.04;96190.87;4376250;32;20204;-61
2022/03/28 03:54:52;;;;;;;10.27;8.47;;;;;;;8.70;59.63;96196.41;4356359;32;20272;-61
2022/03/28 03:57:20;;;;;;;9.00;8.07;;;;;;;8.77;59.95;96191.63;4387944;32;20272;-61
2022/03/28 03:59:45;;;;;;;12.50;8.80;;;;;;;8.86;59.57;96190.09;4380511;32;20199;-61
2022/03/28 04:02:12;;;;;;;8.77;7.87;;;;;;;8.83;59.89;96189.81;4387815;32;20276;-61
2022/03/28 04:04:38;;;;;;;10.83;9.10;;;;;;;8.85;59.59;96191.16;4394251;32;20199;-61
2022/03/28 04:07:05;;;;;;;8.57;7.73;;;;;;;8.56;60.43;96195.25;4384267;32;25706;-61
2022/03/28 04:09:31;;;;;;;9.70;8.43;;;;;;;8.36;61.46;96187.25;4391982;32;20276;-61
2022/03/28 04:11:57;;;;;;;9.60;8.67;;;;;;;8.29;62.04;96195.41;4386539;32;20286;-61
2022/03/28 04:14:25;;;;;;;9.13;8.17;;;;;;;8.23;62.17;96189.28;4389216;32;20268;-61
2022/03/28 04:16:50;;;;;;;10.87;8.87;;;;;;;8.19;62.37;96192.69;4382988;32;20215;-61
2022/03/28 04:19:17;;;;;;;9.90;8.73;;;;;;;8.05;62.77;96189.72;4385083;32;20279;-62
2022/03/28 04:21:47;;;;;;;11.03;8.83;;;;;;;8.03;62.82;96191.81;4398744;32;20177;-61
2022/03/28 04:24:13;;;;;;;9.63;8.67;;;;;;;7.90;63.10;96192.25;4377981;32;20384;-60
2022/03/28 04:26:39;;;;;;;10.27;9.20;;;;;;;7.90;63.04;96197.53;4390999;32;20318;-61
2022/03/28 04:29:04;;;;;;;11.57;8.57;;;;;;;8.00;62.49;96196.81;4383600;32;20373;-61
2022/03/28 04:31:31;;;;;;;8.73;7.83;;;;;;;7.99;62.65;96190.72;4396477;32;20212;-61
2022/03/28 04:33:57;;;;;;;10.67;8.83;;;;;;;8.07;62.33;96187.63;4371531;32;20219;-60
2022/03/28 04:36:23;;;;;;;9.93;8.40;;;;;;;8.23;61.60;96191.13;4359018;32;20273;-61
2022/03/28 04:38:51;;;;;;;11.03;8.50;;;;;;;8.13;61.87;96185.78;4337663;32;20189;-61
2022/03/28 04:41:17;;;;;;;9.73;8.83;;;;;;;8.10;62.15;96187.09;4361153;32;20332;-61
2022/03/28 04:43:42;;;;;;;10.13;8.87;;;;;;;8.33;61.40;96177.19;4369825;32;20286;-61
2022/03/28 04:46:09;;;;;;;9.47;8.50;;;;;;;7.86;62.68;96185.91;4378242;32;20203;-60
2022/03/28 04:48:34;;;;;;;10.37;7.77;;;;;;;7.59;63.98;96186.75;4382965;32;20316;-60
2022/03/28 04:51:01;;;;;;;11.97;8.20;;;;;;;7.64;63.87;96185.22;4365131;32;20284;-61
2022/03/28 04:53:26;;;;;;;10.20;9.10;;;;;;;7.63;64.14;96188.91;4382776;32;20255;-61
2022/03/28 04:55:52;;;;;;;10.00;8.70;;;;;;;7.85;63.53;96184.31;4389297;32;20272;-60
2022/03/28 04:58:18;;;;;;;10.07;9.00;;;;;;;7.88;63.40;96183.78;4390404;32;20184;-60
2022/03/28 05:00:44;;;;;;;11.60;9.03;;;;;;;7.66;64.10;96177.84;4372354;32;20242;-61
2022/03/28 05:03:11;;;;;;;9.70;8.70;;;;;;;8.02;63.37;96184.13;4375260;32;20351;-61
2022/03/28 05:05:37;;;;;;;9.63;8.73;;;;;;;7.92;63.74;96179.56;4374104;32;20235;-62
2022/03/28 05:08:05;;;;;;;13.43;9.03;;;;;;;7.61;64.69;96175.16;4378559;32;20276;-61
2022/03/28 05:10:30;;;;;;;10.10;9.03;;;;;;;7.58;65.15;96179.09;4385704;32;20326;-60
2022/03/28 05:12:55;;;;;;;18.70;9.30;;;;;;;7.63;65.03;96175.69;4381761;32;20268;-62
2022/03/28 05:15:25;;;;;;;11.93;9.17;;;;;;;7.57;65.06;96180.94;4401722;32;20184;-61
2022/03/28 05:17:53;;;;;;;11.20;9.43;;;;;;;7.75;64.37;96177.09;4386339;32;20196;-61
2022/03/28 05:20:18;;;;;;;9.97;8.97;;;;;;;7.75;64.34;96178.94;4393861;32;20271;-62
2022/03/28 05:22:44;;;;;;;10.23;8.80;;;;;;;7.80;64.02;96177.13;4384436;32;20299;-62
2022/03/28 05:25:10;;;;;;;11.50;9.37;;;;;;;7.87;63.96;96177.72;4359665;32;20206;-61
2022/03/28 05:28:05;;;;;;;10.33;9.20;;;;;;;7.66;64.46;96173.34;4385718;32;20196;-60
2022/03/28 05:30:31;;;;;;;13.77;9.27;;;;;;;7.81;64.18;96172.66;4388171;32;20291;-61
2022/03/28 05:32:57;;;;;;;10.33;9.03;;;;;;;7.71;64.31;96178.62;4345495;32;20297;-62
2022/03/28 05:35:22;;;;;;;13.00;9.73;;;;;;;7.59;64.72;96168.28;4318583;32;20295;-61
2022/03/28 05:37:49;;;;;;;11.40;8.53;;;;;;;7.77;64.41;96163.62;4349772;32;20181;-62
2022/03/28 05:40:16;;;;;;;9.20;8.30;;;;;;;7.88;64.19;96165.31;4354867;32;20273;-69
2022/03/28 05:42:43;;;;;;;11.80;9.93;;;;;;;7.97;64.10;96173.53;4381245;32;20283;-61
2022/03/28 05:45:12;;;;;;;12.80;9.17;;;;;;;8.03;63.67;96175.97;4348205;32;20269;-61
2022/03/28 05:47:39;;;;;;;10.50;9.37;;;;;;;8.18;62.80;96170.75;4373067;32;20280;-61
2022/03/28 05:50:06;;;;;;;10.23;9.10;;;;;;;8.26;62.80;96162.34;4358165;32;20336;-61
2022/03/28 05:52:32;;;;;;;17.33;8.87;;;;;;;8.26;62.92;96164.97;4367964;32;20265;-62
2022/03/28 05:54:59;;;;;;;10.43;9.33;;;;;;;8.42;62.61;96167.72;4320069;32;20269;-61
2022/03/28 05:57:26;;;;;;;12.40;8.83;;;;;;;8.41;62.57;96160.84;4368634;32;20286;-62
2022/03/28 05:59:51;;;;;;;9.87;8.57;;;;;;;8.35;62.47;96159.22;4395854;32;20272;-61
2022/03/28 06:02:16;;;;;;;14.20;8.80;;;;;;;8.48;62.45;96164.84;4378511;32;20268;-62
2022/03/28 06:04:43;;;;;;;14.67;9.40;;;;;;;8.60;61.66;96161.97;4370019;32;20255;-62
2022/03/28 06:07:08;;;;;;;10.87;8.40;;;;;;;8.49;62.54;96168.28;4384699;32;20196;-61
2022/03/28 06:09:36;;;;;;;10.53;9.40;;;;;;;8.51;62.08;96171.47;4355096;32;20362;-62
2022/03/28 06:12:04;;;;;;;10.70;9.13;;;;;;;8.53;62.40;96169.34;4368798;32;20192;-62
2022/03/28 06:14:31;;;;;;;10.73;8.17;;;;;;;8.57;62.09;96170.41;4339562;32;20291;-61
2022/03/28 06:16:58;;;;;;;10.03;9.07;;;;;;;8.78;61.75;96166.78;4381759;32;20268;-61
2022/03/28 06:19:23;;;;;;;9.40;8.50;;;;;;;8.91;61.40;96163.66;4365105;32;20268;-61
2022/03/28 06:21:49;;;;;;;10.27;9.00;;;;;;;9.05;60.59;96157.84;4353772;32;20325;-61
2022/03/28 06:24:14;;;;;;;10.13;8.83;;;;;;;8.86;61.22;96168.94;4393069;32;20194;-68
2022/03/28 06:26:41;;;;;;;11.67;9.13;;;;;;;9.26;60.77;96172.69;4333411;32;20288;-62
2022/03/28 06:29:10;;;;;;;32.03;7.77;;;;;;;9.19;60.92;96175.59;4386179;32;20226;-43
2022/03/28 06:31:37;;;;;;;20.07;6.83;;;;;;;10.87;80.50;96165.47;4389601;32;20372;-41
2022/03/28 06:34:03;;;;;;;8.87;7.60;;;;;;;12.39;69.07;96166.13;4381649;32;20361;-41
2022/03/28 06:36:31;;;;;;;10.57;8.03;;;;;;;12.98;58.55;96164.84;4353138;32;20368;-44
2022/03/28 06:38:57;;;;;;;11.63;8.13;;;;;;;13.64;54.13;96155.91;4388737;32;20194;-44
2022/03/28 06:41:24;;;;;;;9.37;7.77;;;;;;;13.99;50.56;96162.50;4369748;32;20247;-41
2022/03/28 06:43:49;;;;;;;10.23;7.40;;;;;;;14.21;49.37;96165.31;4389864;32;20202;-43
2022/03/28 06:46:16;;;;;;;11.70;7.77;;;;;;;14.50;48.69;96172.28;4376888;32;20180;-45
2022/03/28 06:48:42;;;;;;;9.37;8.33;;;;;;;14.60;47.56;96170.19;4391609;32;20197;-43
2022/03/28 06:51:10;;;;;;;11.23;8.90;;;;;;;14.64;47.27;96170.38;4383832;32;20350;-48
2022/03/28 06:53:35;;;;;;;14.23;7.87;;;;;;;14.65;46.74;96169.31;4386788;32;20319;-50
2022/03/28 06:56:02;;;;;;;14.67;8.73;;;;;;;14.63;47.06;96171.47;4379426;32;20259;-52
2022/03/28 06:58:34;;;;;;;14.87;8.37;;;;;;;14.90;48.09;96166.13;4372389;32;20203;-50
2022/03/28 07:00:59;;;;;;;12.70;9.00;;;;;;;14.82;46.45;96168.69;4388128;32;20196;-52
2022/03/28 07:03:25;;;;;;;10.07;8.20;;;;;;;14.87;46.28;96160.56;4389089;32;20239;-50
2022/03/28 07:05:52;;;;;;;11.03;8.30;;;;;;;14.84;45.96;96161.97;4382168;32;20187;-49
2022/03/28 07:08:19;;;;;;;11.40;9.20;;;;;;;14.82;45.98;96161.47;4390281;32;20275;-51
2022/03/28 07:10:45;;;;;;;9.27;8.33;;;;;;;14.78;45.86;96165.81;4385188;32;20255;-51
2022/03/28 07:13:11;;;;;;;9.20;7.80;;;;;;;14.78;45.34;96157.81;4350073;32;20268;-49
2022/03/28 07:15:37;;;;;;;9.33;8.23;;;;;;;14.78;45.89;96163.16;4369756;32;20188;-52
2022/03/28 07:18:08;;;;;;;9.40;8.40;;;;;;;14.74;45.38;96162.19;4371347;32;20241;-49
2022/03/28 07:20:36;;;;;;;9.07;7.90;;;;;;;14.74;45.29;96156.84;4374092;32;20184;-52
2022/03/28 07:23:04;;;;;;;10.17;8.53;;;;;;;14.79;45.78;96156.72;4346306;32;20224;-47
2022/03/28 07:25:36;;;;;;;8.93;7.77;;;;;;;14.80;45.62;96155.62;4380546;32;20309;-47
2022/03/28 07:28:13;;;;;;;9.30;7.93;;;;;;;14.82;45.23;96150.78;4393642;32;20202;-50
2022/03/28 07:30:41;;;;;;;12.10;7.77;;;;;;;14.79;45.30;96144.16;4363514;32;20209;-48
2022/03/28 07:33:07;;;;;;;9.60;8.70;;;;;;;14.78;45.62;96147.13;4362711;32;20279;-50
2022/03/28 07:35:35;;;;;;;8.27;7.57;;;;;;;14.85;45.52;96141.38;4377675;32;20183;-48
2022/03/28 07:38:11;;;;;;;10.13;8.70;;;;;;;15.03;45.14;96141.25;4398289;32;20190;-48
2022/03/28 07:40:38;;;;;;;9.70;8.70;;;;;;;15.61;43.84;96132.44;4389974;32;20247;-48
2022/03/28 07:43:04;;;;;;;11.63;8.77;;;;;;;16.07;42.95;96129.37;4371093;32;20339;-48
2022/03/28 07:45:31;;;;;;;10.10;8.23;;;;;;;16.44;41.98;96133.47;4384061;32;20188;-52
2022/03/28 07:47:57;;;;;;;11.43;9.13;;;;;;;16.75;41.64;96132.66;4398557;32;20236;-49
2022/03/28 07:50:22;;;;;;;13.30;9.43;;;;;;;15.22;43.26;96135.75;4380360;32;20192;-66
2022/03/28 07:52:50;;;;;;;14.93;10.13;;;;;;;14.55;43.96;96138.25;4363335;32;20220;-65
2022/03/28 07:55:18;;;;;;;15.57;10.87;;;;;;;14.23;44.74;96136.44;4378552;32;20234;-65
2022/03/28 07:57:49;;;;;;;13.60;9.97;;;;;;;13.70;45.96;96139.53;4385343;32;20283;-65
2022/03/28 08:00:17;;;;;;;18.27;10.23;;;;;;;13.59;47.12;96137.31;4395727;32;20184;-65
2022/03/28 08:02:43;;;;;;;13.13;8.67;;;;;;;13.53;46.94;96139.25;4388655;32;20177;-65
2022/03/28 08:05:12;;;;;;;12.37;10.07;;;;;;;13.63;47.70;96135.66;4373698;32;20348;-66
2022/03/28 08:07:39;;;;;;;11.87;9.40;;;;;;;13.85;48.38;96130.47;4378441;32;20188;-66
2022/03/28 08:10:13;;;;;;;11.97;9.30;;;;;;;13.98;46.06;96134.25;4312571;32;20189;-65
2022/03/28 08:12:43;;;;;;;15.80;9.50;;;;;;;13.74;45.73;96135.19;4347671;32;20203;-65
2022/03/28 08:15:22;;;;;;;12.13;9.67;;;;;;;13.91;46.85;96126.63;4370778;32;20192;-65
2022/03/28 08:17:48;;;;;;;10.40;9.30;;;;;;;14.15;47.20;96123.78;4369504;32;20193;-65
2022/03/28 08:20:15;;;;;;;14.03;9.93;;;;;;;14.06;44.59;96125.56;4369952;32;20206;-65
2022/03/28 08:22:44;;;;;;;10.33;9.30;;;;;;;13.95;45.51;96130.28;4354640;32;20208;-66
2022/03/28 08:25:11;;;;;;;14.53;9.80;;;;;;;13.99;45.81;96120.59;4383480;32;20204;-63
2022/03/28 08:27:36;;;;;;;11.90;9.43;;;;;;;14.07;45.00;96124.47;4387846;32;20207;-64
2022/03/28 08:30:05;;;;;;;11.03;9.87;;;;;;;14.35;45.62;96123.38;4380560;32;20205;-66
2022/03/28 08:32:33;;;;;;;13.40;9.93;;;;;;;14.34;45.36;96129.81;4384964;32;20229;-67
2022/03/28 08:35:04;;;;;;;16.17;10.37;;;;;;;14.39;45.37;96124.38;4387262;32;20198;-69
2022/03/28 08:37:34;;;;;;;13.87;11.03;;;;;;;14.43;44.08;96124.62;4372150;32;20196;-66
2022/03/28 08:39:59;;;;;;;15.97;11.33;;;;;;;14.71;44.50;96130.72;4390010;32;20195;-66
2022/03/28 08:42:26;;;;;;;15.63;11.00;;;;;;;14.72;43.88;96125.09;4349326;32;20185;-68
2022/03/28 08:44:52;;;;;;;13.60;10.63;;;;;;;14.78;43.67;96121.19;4366920;32;20184;-64
2022/03/28 08:47:20;;;;;;;13.17;9.67;;;;;;;14.75;43.89;96113.81;4383894;32;20181;-68
2022/03/28 08:49:49;;;;;;;14.93;10.30;;;;;;;14.65;44.09;96115.88;4381283;32;20303;-68
2022/03/28 08:52:16;;;;;;;14.60;11.70;;;;;;;14.82;43.05;96113.37;4392176;32;20192;-67
2022/03/28 08:54:43;;;;;;;14.47;10.60;;;;;;;14.91;42.45;96118.81;4348464;32;20259;-67
2022/03/28 08:57:13;;;;;;;15.27;11.70;;;;;;;15.04;41.89;96116.09;4366790;32;20225;-65
2022/03/28 08:59:40;;;;;;;16.80;11.37;;;;;;;15.00;41.30;96112.44;4362320;32;20238;-65
2022/03/28 09:02:46;;;;;;;18.67;12.27;;;;;;;15.04;42.50;96113.44;4326446;32;20332;-65
2022/03/28 09:05:15;;;;;;;21.97;12.00;;;;;;;15.17;41.96;96105.69;4306911;32;20196;-64
2022/03/28 09:07:42;;;;;;;20.30;12.13;;;;;;;15.29;39.79;96114.72;4390013;32;20188;-69
2022/03/28 09:10:17;;;;;;;13.23;10.73;;;;;;;15.26;39.96;96117.22;4335466;32;20239;-66
2022/03/28 09:13:03;;;;;;;15.13;10.70;;;;;;;15.03;41.07;96111.84;4354850;32;20238;-64
2022/03/28 09:15:55;;;;;;;21.77;12.47;;;;;;;15.01;41.41;96106.00;4353017;32;20188;-64
2022/03/28 09:18:31;;;;;;;17.17;12.63;;;;;;;15.27;41.00;96100.88;4361508;32;20181;-66
2022/03/28 09:21:16;;;;;;;16.93;11.70;;;;;;;15.55;40.66;96096.19;4352528;32;20234;-63
2022/03/28 09:23:52;;;;;;;15.93;11.93;;;;;;;15.66;40.05;96086.03;4351128;32;20185;-65
2022/03/28 09:26:23;;;;;;;13.33;11.47;;;;;;;15.74;40.38;96088.00;4373434;32;20168;-66
2022/03/28 09:29:05;;;;;;;19.80;11.40;;;;;;;15.82;39.30;96081.88;4375509;32;20241;-64
2022/03/28 09:31:37;;;;;;;16.87;11.77;;;;;;;15.93;39.28;96085.88;4391590;32;20180;-66
2022/03/28 09:34:19;;;;;;;15.47;11.30;;;;;;;15.94;39.51;96081.31;4379704;32;20236;-65
2022/03/28 09:36:58;;;;;;;14.30;11.23;;;;;;;15.94;39.50;96078.66;4353155;32;20277;-65
2022/03/28 09:39:29;;;;;;;15.43;11.67;;;;;;;15.91;38.96;96076.59;4345197;32;20181;-65
2022/03/28 09:42:16;;;;;;;14.70;10.97;;;;;;;15.98;39.29;96079.62;4360092;32;20184;-66
2022/03/28 09:44:51;;;;;;;14.20;11.80;;;;;;;16.09;39.72;96070.97;4360398;32;20193;-67
2022/03/28 09:47:22;;;;;;;16.70;11.80;;;;;;;16.15;39.41;96066.28;4373063;32;20200;-69
2022/03/28 09:49:50;;;;;;;13.43;10.97;;;;;;;16.35;37.37;96057.69;4345615;32;20184;-66
2022/03/28 09:52:22;;;;;;;17.00;12.50;;;;;;;16.25;38.54;96066.00;4371705;32;20199;-65
2022/03/28 09:54:54;;;;;;;16.83;11.47;;;;;;;16.32;37.46;96065.53;4333986;32;20188;-64
2022/03/28 09:57:26;;;;;;;16.23;12.03;;;;;;;16.20;37.39;96060.81;4358715;32;20239;-66
2022/03/28 10:00:19;;;;;;;14.60;11.60;;;;;;;16.04;37.35;96060.41;4354329;32;20188;-64
2022/03/28 10:02:49;;;;;;;17.50;12.40;;;;;;;16.24;37.38;96058.25;4328050;32;20177;-67
2022/03/28 10:05:15;;;;;;;16.97;11.60;;;;;;;16.23;37.61;96043.28;4367193;32;20229;-66
2022/03/28 10:07:41;;;;;;;16.93;11.40;;;;;;;16.23;37.45;96051.34;4374081;32;20209;-66
2022/03/28 10:10:08;;;;;;;19.27;15.23;;;;;;;16.23;38.11;96038.72;4376989;32;20191;-64
2022/03/28 10:12:42;;;;;;;16.20;12.57;;;;;;;16.40;38.59;96040.69;4363103;32;20207;-63
2022/03/28 10:15:07;;;;;;;17.47;11.80;;;;;;;16.50;37.71;96038.47;4374414;32;20181;-64
2022/03/28 10:17:33;;;;;;;12.77;11.43;;;;;;;16.34;38.08;96033.91;4376288;32;20184;-65
2022/03/28 10:19:59;;;;;;;16.63;12.40;;;;;;;16.50;37.14;96033.12;4376369;32;20289;-65
2022/03/28 10:22:28;;;;;;;21.73;12.23;;;;;;;16.42;37.59;96022.37;4376952;32;20181;-64
2022/03/28 10:24:58;;;;;;;19.60;12.03;;;;;;;16.37;37.23;96027.91;4366393;32;20181;-64
2022/03/28 10:27:25;;;;;;;16.80;12.20;;;;;;;16.66;36.59;96013.94;4384457;32;20172;-64
2022/03/28 10:29:52;;;;;;;21.37;11.37;;;;;;;16.63;37.38;96012.69;4390044;32;20195;-65
2022/03/28 10:32:20;;;;;;;13.97;12.37;;;;;;;16.57;37.75;96007.78;4386941;32;20271;-64
2022/03/28 10:34:53;;;;;;;18.80;13.17;;;;;;;16.63;36.38;96006.50;4382570;32;20212;-64
2022/03/28 10:37:41;;;;;;;19.53;12.63;;;;;;;16.68;35.44;95998.34;4390147;32;20192;-64
2022/03/28 10:40:26;;;;;;;12.90;11.57;;;;;;;16.65;35.84;95993.59;4376153;32;20176;-64
2022/03/28 10:43:07;;;;;;;19.93;15.43;;;;;;;16.63;37.32;95988.56;4389805;32;20189;-64
2022/03/28 10:45:37;;;;;;;11.23;9.93;;;;;;;16.89;36.04;95985.88;4376755;32;20222;-64
2022/03/28 10:48:04;;;;;;;16.00;12.50;;;;;;;16.91;40.15;95978.31;4389808;32;20219;-64
2022/03/28 10:50:30;;;;;;;16.27;12.60;;;;;;;16.98;36.64;95967.91;4375914;32;20180;-64
2022/03/28 10:53:10;;;;;;;16.90;12.20;;;;;;;16.96;35.48;95958.59;4388321;32;20199;-65
2022/03/28 10:55:45;;;;;;;13.17;11.63;;;;;;;16.82;35.66;95961.47;4382835;32;20279;-68
2022/03/28 10:58:28;;;;;;;12.73;11.23;;;;;;;16.84;38.40;95954.66;4386501;32;20171;-68
2022/03/28 11:01:06;;;;;;;13.70;11.80;;;;;;;16.97;35.14;95946.78;4386510;32;20187;-68
2022/03/28 11:03:36;;;;;;;14.87;12.23;;;;;;;16.94;35.66;95948.19;4388354;32;20192;-67
2022/03/28 11:06:06;;;;;;;18.50;11.87;;;;;;;16.86;35.18;95942.84;4388265;32;20184;-68
2022/03/28 11:08:39;;;;;;;13.67;12.33;;;;;;;16.87;37.06;95941.75;4396716;32;20196;-67
2022/03/28 11:11:27;;;;;;;18.53;12.60;;;;;;;16.92;35.30;95942.38;4389285;32;20217;-62
2022/03/28 11:13:59;;;;;;;14.07;11.30;;;;;;;16.92;36.55;95937.00;4389957;32;20180;-66
2022/03/28 11:16:43;;;;;;;15.73;12.27;;;;;;;17.03;35.70;95927.53;4389975;32;20234;-64
2022/03/28 11:19:32;;;;;;;14.93;12.43;;;;;;;17.13;34.71;95919.12;4385395;32;20207;-64
2022/03/28 11:21:59;;;;;;;15.37;12.37;;;;;;;17.32;36.15;95915.28;4388768;32;20200;-64
2022/03/28 11:24:46;;;;;;;15.63;12.63;;;;;;;17.25;34.47;95915.03;4390350;32;20199;-64
2022/03/28 11:27:14;;;;;;;14.13;12.30;;;;;;;17.24;34.22;95902.72;4384040;32;20228;-62
2022/03/28 11:29:41;;;;;;;17.03;12.97;;;;;;;17.10;34.79;95895.63;4390196;32;20199;-63
2022/03/28 11:32:08;;;;;;;15.20;12.73;;;;;;;17.13;34.69;95886.97;4388446;32;20196;-61
2022/03/28 11:34:34;;;;;;;15.20;12.27;;;;;;;16.81;35.28;95880.28;4389904;32;20185;-63
2022/03/28 11:37:01;;;;;;;13.13;11.33;;;;;;;16.96;34.59;95887.03;4388951;32;20248;-63
2022/03/28 11:39:27;;;;;;;13.87;10.23;;;;;;;17.06;35.29;95880.50;4401174;32;20199;-61